Time;durP1;ratioP1;P1;durP2;ratioP2;P2;SDS_P1;SDS_P2;PMS_P1;PMS_P2;Temp;Humidity;BMP_temperature;BMP_pressure;BME280_temperature;BME280_humidity;BME280_pressure;Samples;Min_cycle;Max_cycle;Signal;HPM_P1;HPM_P2
2022/07/05 00:03:48;;;;;;;1.20;0.90;;;21.70;37.50;;;19.82;38.86;101434.03;12246866;19;20090;-80
2022/07/05 00:07:49;;;;;;;1.08;1.08;;;21.70;37.40;;;19.91;38.87;101462.44;12248738;19;20015;-80
2022/07/05 00:11:51;;;;;;;1.23;1.13;;;21.60;37.50;;;19.77;39.20;101453.00;12241644;19;20073;-80
2022/07/05 00:15:53;;;;;;;1.25;0.80;;;21.50;37.50;;;19.50;39.03;101426.09;12248420;19;20023;-80
2022/07/05 00:19:54;;;;;;;1.00;1.00;;;21.70;37.90;;;19.58;39.30;101458.94;12246574;19;20479;-80
2022/07/05 00:23:56;;;;;;;1.00;0.85;;;21.30;37.70;;;19.17;39.18;101410.16;12246726;19;20053;-80
2022/07/05 00:27:57;;;;;;;1.02;1.02;;;21.30;37.70;;;19.35;39.39;101442.25;12250086;19;20499;-80
2022/07/05 00:31:59;;;;;;;1.10;1.00;;;21.20;37.90;;;19.27;39.45;101436.72;12242828;19;20018;-80
2022/07/05 00:36:01;;;;;;;1.00;1.00;;;21.20;38.00;;;19.36;39.73;101462.47;12248366;19;20027;-80
2022/07/05 00:40:07;;;;;;;1.67;1.13;;;21.20;38.10;;;19.23;39.79;101444.09;12243421;19;20023;-80
2022/07/05 00:44:11;;;;;;;1.08;0.90;;;21.10;38.10;;;19.35;39.83;101467.88;12242246;19;20101;-79
2022/07/05 00:48:12;;;;;;;0.93;0.93;;;21.10;38.20;;;19.18;40.01;101450.72;12243790;19;20366;-79
2022/07/05 00:52:15;;;;;;;1.73;0.98;;;21.10;38.10;;;19.13;40.24;101451.06;12244181;19;20022;-79
2022/07/05 00:56:20;;;;;;;1.33;1.13;;;21.20;38.30;;;18.96;40.30;101425.13;12245090;19;20007;-79
2022/07/05 01:00:22;;;;;;;0.95;0.95;;;20.90;38.30;;;19.14;40.27;101470.44;12244209;19;20360;-80
2022/07/05 01:04:24;;;;;;;1.42;1.33;;;20.90;38.40;;;19.14;40.29;101470.44;12240770;19;20006;-80
2022/07/05 01:08:28;;;;;;;1.10;1.10;;;20.90;38.50;;;19.09;40.63;101468.19;12247149;19;20018;-80
2022/07/05 01:12:29;;;;;;;1.10;0.88;;;21.00;38.60;;;19.06;40.48;101467.56;12237447;19;20038;-80
2022/07/05 01:16:32;;;;;;;2.42;1.20;;;21.10;38.80;;;18.97;40.68;101463.84;12245301;19;20015;-80
2022/07/05 01:20:34;;;;;;;1.30;1.20;;;20.80;38.70;;;18.91;40.68;101466.97;12227543;19;20531;-80
2022/07/05 01:24:37;;;;;;;1.20;1.05;;;20.80;38.80;;;18.90;40.82;101475.88;12241325;19;20518;-80
2022/07/05 01:28:39;;;;;;;1.20;1.10;;;20.90;39.00;;;18.79;40.77;101471.41;12240731;19;20014;-80
2022/07/05 01:32:40;;;;;;;1.00;1.00;;;20.80;39.00;;;18.73;40.97;101469.22;12240356;19;20377;-80
2022/07/05 01:36:42;;;;;;;1.42;1.30;;;20.90;39.10;;;18.72;41.09;101480.78;12239791;19;20014;-79
2022/07/05 01:40:44;;;;;;;1.30;1.20;;;20.90;39.20;;;18.60;41.14;101457.91;12242211;19;20018;-80
2022/07/05 01:44:45;;;;;;;1.20;1.15;;;20.50;39.30;;;18.69;41.21;101481.03;12238644;19;20082;-80
2022/07/05 01:48:52;;;;;;;1.10;1.00;;;20.40;39.20;;;18.69;41.66;101486.31;12243438;19;21201;-79
2022/07/05 01:52:56;;;;;;;1.17;0.98;;;20.80;39.60;;;18.57;41.60;101473.03;12236111;19;20015;-80
2022/07/05 01:56:58;;;;;;;1.30;1.23;;;20.40;39.40;;;18.55;41.33;101474.13;12243596;19;20018;-80
2022/07/05 02:01:00;;;;;;;1.20;1.10;;;20.30;39.50;;;18.35;41.51;101446.56;12239499;19;20014;-79
2022/07/05 02:05:02;;;;;;;1.40;1.30;;;20.40;39.50;;;18.35;41.66;101462.44;12241376;19;20237;-79
2022/07/05 02:09:05;;;;;;;1.15;1.05;;;20.30;39.50;;;17.99;41.93;101416.69;12235028;19;20010;-80
2022/07/05 02:13:08;;;;;;;1.30;1.20;;;20.20;39.50;;;18.21;41.87;101467.94;12239207;19;20018;-79
2022/07/05 02:17:11;;;;;;;0.98;0.95;;;20.30;39.70;;;18.15;41.95;101469.25;12241548;19;20018;-79
2022/07/05 02:21:14;;;;;;;1.20;1.10;;;20.10;39.60;;;18.06;42.13;101451.41;12236787;19;20015;-79
2022/07/05 02:25:17;;;;;;;1.45;1.08;;;20.10;39.80;;;18.06;42.10;101468.09;12241022;19;20018;-79
2022/07/05 02:29:20;;;;;;;1.33;1.20;;;20.00;39.80;;;18.04;42.21;101477.13;12240763;19;20022;-79
2022/07/05 02:33:23;;;;;;;1.20;1.10;;;20.00;40.00;;;17.76;42.43;101446.59;12239020;19;20102;-79
2022/07/05 02:37:27;;;;;;;0.93;0.93;;;19.90;40.10;;;17.72;42.58;101443.34;12240298;19;20015;-79
2022/07/05 02:41:29;;;;;;;0.90;0.90;;;20.00;40.30;;;17.47;42.41;101426.66;12235413;19;20077;-79
2022/07/05 02:45:31;;;;;;;0.90;0.90;;;19.70;40.10;;;17.68;42.49;101452.44;12242399;19;20353;-79
2022/07/05 02:49:35;;;;;;;1.20;1.20;;;19.70;40.20;;;17.64;42.63;101458.91;12237153;19;20015;-79
2022/07/05 02:53:39;;;;;;;3.13;1.27;;;19.60;40.30;;;17.50;42.88;101438.78;12239985;19;20010;-79
2022/07/05 02:57:43;;;;;;;1.73;1.02;;;19.50;40.40;;;17.58;42.79;101462.84;12238704;19;20014;-79
2022/07/05 03:01:48;;;;;;;1.42;1.15;;;19.50;40.60;;;17.66;42.87;101472.81;12236992;19;20010;-79
2022/07/05 03:05:51;;;;;;;2.08;1.48;;;19.50;40.80;;;17.61;43.20;101459.97;12253494;19;20085;-79
2022/07/05 03:09:54;;;;;;;1.40;1.30;;;19.50;40.90;;;17.59;43.08;101463.69;12257826;19;20014;-80
2022/07/05 03:13:56;;;;;;;1.38;1.27;;;19.40;41.00;;;17.54;43.30;101465.81;12262537;19;20022;-79
2022/07/05 03:17:58;;;;;;;1.83;1.73;;;19.40;41.10;;;17.58;43.59;101481.34;12258278;19;20476;-77
2022/07/05 03:22:03;;;;;;;1.38;1.27;;;19.50;41.20;;;17.46;43.53;101463.72;12259362;19;20011;-77
2022/07/05 03:26:07;;;;;;;1.27;1.20;;;19.40;41.20;;;17.35;43.55;101469.78;12258623;19;20356;-77
2022/07/05 03:30:11;;;;;;;1.88;1.27;;;19.40;41.30;;;17.35;43.78;101482.97;12258117;19;20507;-77
2022/07/05 03:34:13;;;;;;;3.30;1.40;;;19.30;41.20;;;17.15;43.84;101465.09;12258480;19;20023;-77
2022/07/05 03:38:17;;;;;;;1.42;1.30;;;19.30;41.40;;;17.25;43.98;101498.66;12260790;19;20353;-77
2022/07/05 03:42:20;;;;;;;2.50;1.38;;;19.30;41.50;;;17.14;44.17;101492.44;12257299;19;20018;-77
2022/07/05 03:46:22;;;;;;;2.35;1.15;;;19.10;41.60;;;17.13;43.99;101496.88;12259268;19;20396;-77
2022/07/05 03:50:24;;;;;;;2.58;2.20;;;19.30;41.80;;;17.12;44.30;101496.97;12259001;19;20550;-77
2022/07/05 03:54:26;;;;;;;1.77;1.20;;;19.10;41.90;;;17.06;44.43;101497.41;12259401;19;20121;-77
2022/07/05 03:58:29;;;;;;;2.47;1.20;;;19.10;41.90;;;17.05;44.49;101501.00;12259178;19;20432;-77
2022/07/05 04:02:33;;;;;;;1.20;1.00;;;19.10;42.00;;;17.16;44.56;101519.56;12255184;19;20551;-77
2022/07/05 04:06:36;;;;;;;1.13;1.02;;;19.20;42.20;;;17.07;44.54;101493.84;12259360;19;20500;-77
2022/07/05 04:10:39;;;;;;;2.30;1.08;;;19.10;42.40;;;17.33;44.55;101518.38;12253504;19;20018;-77
2022/07/05 04:14:41;;;;;;;4.07;1.38;;;19.10;42.50;;;17.45;44.84;101534.19;12253833;19;20018;-77
2022/07/05 04:18:43;;;;;;;2.45;1.08;;;19.20;42.60;;;17.57;44.79;101537.72;12238939;19;20395;-77
2022/07/05 04:22:44;;;;;;;1.08;0.98;;;19.30;42.60;;;17.61;44.94;101533.09;12237970;19;20015;-77
2022/07/05 04:26:48;;;;;;;1.88;1.13;;;19.50;42.70;;;17.57;44.83;101508.69;12243994;19;20006;-77
2022/07/05 04:30:50;;;;;;;0.80;0.80;;;19.50;42.80;;;17.72;45.02;101532.31;12242176;19;20014;-77
2022/07/05 04:34:54;;;;;;;2.00;0.98;;;19.60;42.90;;;17.89;45.00;101543.38;12239943;19;20018;-78
2022/07/05 04:38:56;;;;;;;0.85;0.85;;;19.60;42.90;;;18.01;45.30;101549.56;12240872;19;20045;-78
2022/07/05 04:43:00;;;;;;;1.25;1.00;;;19.70;43.20;;;18.15;45.21;101553.84;12235353;19;20082;-77
2022/07/05 04:47:02;;;;;;;1.30;0.95;;;19.80;43.20;;;18.25;45.18;101562.75;12240182;19;20014;-78
2022/07/05 04:51:05;;;;;;;1.58;0.85;;;20.00;43.30;;;18.35;45.26;101565.56;12234383;19;20353;-77
2022/07/05 04:55:09;;;;;;;0.70;0.70;;;20.00;43.20;;;18.47;45.18;101563.78;12240327;19;20039;-77
2022/07/05 04:59:10;;;;;;;2.13;0.98;;;20.10;43.30;;;18.53;45.38;101548.31;12237713;19;20018;-77
2022/07/05 05:03:12;;;;;;;1.58;0.70;;;20.30;43.20;;;18.66;45.23;101547.38;12234683;19;20022;-77
2022/07/05 05:07:14;;;;;;;1.73;1.00;;;20.50;43.30;;;18.86;45.37;101564.41;12239196;19;20468;-77
2022/07/05 05:11:16;;;;;;;1.92;0.90;;;20.70;43.30;;;19.02;45.35;101567.56;12236910;19;20018;-77
2022/07/05 05:15:18;;;;;;;0.70;0.68;;;20.70;43.10;;;19.18;45.31;101577.81;12239988;19;20362;-77
2022/07/05 05:19:20;;;;;;;1.98;0.90;;;20.90;42.90;;;19.27;45.31;101576.25;12239809;19;20097;-77
2022/07/05 05:23:23;;;;;;;0.60;0.60;;;21.00;43.00;;;19.33;45.06;101560.69;12235547;19;20025;-77
2022/07/05 05:27:24;;;;;;;1.95;0.85;;;21.10;42.80;;;19.46;45.24;101577.31;12239687;19;20031;-77
2022/07/05 05:31:26;;;;;;;1.38;0.90;;;21.30;42.90;;;19.44;45.18;101551.91;12234667;19;20089;-77
2022/07/05 05:35:28;;;;;;;2.13;0.70;;;21.40;42.80;;;19.72;45.34;101579.75;12238258;19;20014;-77
2022/07/05 05:39:29;;;;;;;1.20;0.90;;;21.50;42.80;;;19.97;45.34;101606.91;12236427;19;20023;-77
2022/07/05 05:43:31;;;;;;;2.20;0.82;;;21.60;42.80;;;20.20;45.27;101615.63;12232567;19;20022;-77
2022/07/05 05:47:33;;;;;;;5.22;0.80;;;21.70;42.70;;;20.32;44.97;101606.69;12234378;19;20019;-77
2022/07/05 05:51:35;;;;;;;1.02;0.63;;;21.90;42.70;;;20.51;44.81;101611.31;12233422;19;20027;-78
2022/07/05 05:55:36;;;;;;;2.10;0.90;;;22.10;42.40;;;20.71;44.64;101621.16;12236519;19;20014;-78
2022/07/05 05:59:38;;;;;;;1.70;1.00;;;22.20;42.40;;;20.91;44.58;101613.31;12235308;19;20393;-78
2022/07/05 06:03:40;;;;;;;1.42;0.80;;;22.50;42.50;;;21.23;44.60;101630.97;12236023;19;20022;-77
2022/07/05 06:07:54;;;;;;;4.50;0.90;;;22.80;42.10;;;21.37;44.30;101620.84;12237612;19;20015;-77
2022/07/05 06:11:55;;;;;;;0.98;0.70;;;22.80;41.80;;;21.60;44.29;101637.47;12230988;19;20027;-77
2022/07/05 06:15:57;;;;;;;0.80;0.70;;;23.10;41.30;;;21.75;43.99;101629.13;12237719;19;20014;-77
2022/07/05 06:19:59;;;;;;;1.08;0.70;;;23.20;41.10;;;21.81;43.83;101624.06;12234848;19;20348;-78
2022/07/05 06:24:00;;;;;;;0.68;0.68;;;23.40;40.80;;;22.03;43.56;101638.97;12235520;19;20406;-78
2022/07/05 06:28:06;;;;;;;0.52;0.52;;;23.50;40.60;;;22.24;43.39;101646.88;12236199;19;20014;-78
2022/07/05 06:32:08;;;;;;;2.17;1.13;;;23.70;40.70;;;22.46;43.34;101640.44;12232803;19;20024;-78
2022/07/05 06:36:10;;;;;;;0.93;0.60;;;24.00;40.50;;;22.27;43.31;101582.72;12232932;19;20019;-77
2022/07/05 06:40:17;;;;;;;1.75;0.77;;;24.10;40.00;;;22.68;43.15;101641.13;12231673;19;20015;-77
2022/07/05 06:44:18;;;;;;;0.50;0.50;;;24.40;39.80;;;22.60;42.82;101604.59;12234464;19;20781;-78
2022/07/05 06:48:20;;;;;;;0.57;0.57;;;24.40;39.70;;;23.04;42.80;101660.91;12231517;19;20743;-78
2022/07/05 06:52:21;;;;;;;0.68;0.60;;;24.70;39.70;;;22.89;42.45;101625.84;12229235;19;20014;-78
2022/07/05 06:56:23;;;;;;;0.52;0.52;;;24.70;39.40;;;23.08;42.42;101632.16;12233818;19;20019;-77
2022/07/05 07:00:26;;;;;;;1.90;0.60;;;24.70;39.20;;;23.24;42.51;101644.88;12232048;19;20369;-77
2022/07/05 07:04:27;;;;;;;1.58;0.60;;;24.90;39.00;;;23.40;42.30;101656.59;12231604;19;20014;-78
2022/07/05 07:12:49;;;;;;;1.08;0.68;;;25.10;38.60;;;23.49;42.19;101636.19;12232298;19;20086;-78
2022/07/05 07:16:51;;;;;;;1.15;0.57;;;25.20;38.50;;;23.60;42.06;101640.50;12234620;19;20042;-78
2022/07/05 07:20:53;;;;;;;0.70;0.57;;;25.30;38.50;;;23.69;41.90;101642.31;12233008;19;20025;-77
2022/07/05 07:24:55;;;;;;;1.45;0.60;;;25.40;38.60;;;23.71;41.46;101618.13;12231750;19;20500;-77
2022/07/05 07:28:57;;;;;;;1.85;0.80;;;25.50;38.40;;;24.02;41.68;101650.72;12232664;19;20021;-77
2022/07/05 07:32:59;;;;;;;1.60;1.20;;;25.70;38.30;;;24.10;41.28;101636.63;12237083;19;20043;-77
2022/07/05 07:37:01;;;;;;;1.42;0.70;;;25.80;38.20;;;24.06;41.15;101615.59;12232901;19;20475;-78
2022/07/05 07:41:02;;;;;;;0.77;0.57;;;25.90;38.00;;;24.40;41.08;101648.75;12231905;19;20030;-78
2022/07/05 07:45:05;;;;;;;1.05;0.60;;;25.90;37.80;;;24.57;41.00;101655.13;12226578;19;20082;-78
2022/07/05 07:49:08;;;;;;;3.80;0.80;;;26.10;38.00;;;24.70;40.64;101648.38;12230886;19;20018;-77
2022/07/05 07:53:10;;;;;;;0.63;0.63;;;26.10;37.70;;;24.76;40.78;101635.41;12239085;19;20015;-77
2022/07/05 07:57:12;;;;;;;2.30;0.73;;;26.30;38.00;;;24.97;41.02;101646.59;12243996;19;20034;-77
2022/07/05 08:01:14;;;;;;;1.45;0.70;;;26.40;37.90;;;25.15;40.56;101649.25;12236793;19;20470;-79
2022/07/05 08:05:15;;;;;;;1.35;0.68;;;26.60;37.70;;;25.02;40.56;101592.66;12239354;19;20472;-77
2022/07/05 08:09:17;;;;;;;1.33;0.60;;;26.80;37.70;;;25.43;40.19;101643.72;12243279;19;20480;-80
2022/07/05 08:13:22;;;;;;;5.82;1.35;;;26.90;37.60;;;25.51;40.23;101625.03;12244275;19;20422;-78
2022/07/05 08:17:23;;;;;;;2.85;0.75;;;27.00;37.40;;;25.65;39.94;101628.94;12240730;19;20003;-78
2022/07/05 08:21:31;;;;;;;3.45;0.57;;;27.20;37.40;;;25.69;39.57;101627.63;12240126;19;20010;-78
2022/07/05 08:25:33;;;;;;;1.50;1.05;;;27.50;37.20;;;25.82;39.87;101641.38;12241575;19;20029;-79
2022/07/05 08:29:35;;;;;;;1.27;0.93;;;27.40;37.10;;;25.74;40.21;101626.13;12242234;19;20479;-79
2022/07/05 08:33:37;;;;;;;1.38;0.77;;;27.40;37.00;;;25.82;39.97;101620.81;12240697;19;20748;-78
2022/07/05 08:37:39;;;;;;;0.95;0.90;;;27.50;36.90;;;26.02;39.67;101648.16;12242816;19;20021;-79
2022/07/05 08:41:43;;;;;;;1.08;0.73;;;27.80;37.00;;;25.95;39.15;101617.69;12238397;19;20014;-79
2022/07/05 08:45:45;;;;;;;1.48;0.77;;;27.60;36.70;;;26.17;39.23;101631.47;12238898;19;20032;-79
2022/07/05 08:49:49;;;;;;;0.98;0.70;;;27.70;36.80;;;26.34;39.27;101626.94;12239041;19;20023;-78
2022/07/05 08:53:52;;;;;;;1.50;0.80;;;27.80;36.90;;;26.53;39.13;101634.69;12239751;19;20030;-78
2022/07/05 08:57:57;;;;;;;1.13;0.80;;;27.90;36.60;;;26.48;38.98;101604.84;12236202;19;20050;-78
2022/07/05 09:02:01;;;;;;;1.45;0.85;;;28.10;36.40;;;26.74;38.63;101634.19;12237221;19;20618;-78
2022/07/05 09:06:06;;;;;;;0.80;0.75;;;28.30;36.30;;;26.75;38.80;101617.09;12236069;19;20018;-78
2022/07/05 09:10:11;;;;;;;1.63;1.10;;;28.30;36.30;;;27.02;38.92;101631.13;12237738;19;20017;-78
2022/07/05 09:14:20;;;;;;;;;;;28.50;36.30;;;27.13;38.74;101625.41;12239234;19;20045;-78
2022/07/05 09:18:49;;;;;;;1.23;0.80;;;28.60;36.50;;;27.25;37.85;101624.06;12237329;19;19974;-78
2022/07/05 09:22:54;;;;;;;1.80;1.00;;;28.70;36.00;;;27.29;38.00;101619.19;12231410;19;20018;-78
2022/07/05 09:27:04;;;;;;;3.00;1.10;;;28.80;35.80;;;27.28;37.76;101596.06;12238813;19;20105;-78
2022/07/05 09:31:06;;;;;;;1.25;0.80;;;28.90;35.10;;;27.41;37.31;101619.63;12234348;19;20015;-78
2022/07/05 09:35:20;;;;;;;1.10;1.00;;;28.90;35.20;;;27.38;37.24;101612.78;12239701;19;20019;-78
2022/07/05 09:39:36;;;;;;;4.25;0.93;;;28.90;35.00;;;27.44;36.73;101619.31;12236784;19;20366;-78
2022/07/05 09:43:38;;;;;;;1.58;0.80;;;28.90;34.70;;;27.45;37.18;101605.72;12237456;19;20003;-78
2022/07/05 09:47:39;;;;;;;1.83;0.90;;;29.00;34.90;;;27.63;37.09;101621.56;12236557;19;20692;-77
2022/07/05 09:51:49;;;;;;;2.17;1.02;;;29.00;34.60;;;27.63;36.36;101594.72;12234752;19;20019;-78
2022/07/05 09:56:03;;;;;;;1.77;1.02;;;29.20;34.50;;;27.78;36.50;101605.53;12236925;19;20015;-80
2022/07/05 10:00:09;;;;;;;1.27;0.60;;;29.20;34.40;;;27.94;36.39;101616.22;12235313;19;20523;-78
2022/07/05 10:04:12;;;;;;;1.00;0.75;;;29.30;34.30;;;27.97;36.10;101615.03;12233994;19;20139;-78
2022/07/05 10:08:15;;;;;;;3.08;0.95;;;29.40;34.10;;;27.89;36.22;101607.84;12234574;19;20075;-78
2022/07/05 10:12:17;;;;;;;2.08;1.27;;;29.50;34.20;;;27.89;35.94;101605.16;12234686;19;20018;-78
2022/07/05 10:16:22;;;;;;;1.25;0.95;;;29.50;33.90;;;27.60;35.91;101565.56;12231198;19;20026;-79
2022/07/05 10:20:33;;;;;;;1.42;1.20;;;29.60;33.70;;;27.93;35.64;101619.94;12235194;19;20039;-79
2022/07/05 10:24:36;;;;;;;1.52;1.08;;;29.50;33.60;;;27.99;35.88;101621.06;12231346;19;20014;-78
2022/07/05 10:28:46;;;;;;;1.42;1.10;;;29.50;33.70;;;28.05;35.54;101617.66;12235037;19;20014;-79
2022/07/05 10:32:48;;;;;;;3.65;1.20;;;29.50;33.50;;;28.06;35.41;101610.44;12230471;19;20021;-80
2022/07/05 10:36:50;;;;;;;1.67;1.10;;;29.40;33.70;;;27.93;35.23;101557.34;12237703;19;20014;-79
2022/07/05 10:40:57;;;;;;;1.05;0.95;;;29.60;33.50;;;28.28;34.99;101592.66;12233709;19;20381;-79
2022/07/05 10:44:59;;;;;;;1.30;1.13;;;29.70;33.60;;;28.46;34.89;101612.00;12234587;19;20397;-79
2022/07/05 10:49:30;;;;;;;1.40;1.10;;;29.80;33.10;;;28.60;34.62;101608.53;12233268;19;20006;-79
2022/07/05 10:53:35;;;;;;;1.63;0.98;;;29.90;33.40;;;28.73;34.22;101618.66;12234478;19;20014;-79
2022/07/05 10:57:37;;;;;;;1.73;1.00;;;30.00;32.90;;;28.72;34.55;101616.16;12234527;19;20007;-79
2022/07/05 11:01:41;;;;;;;1.45;0.93;;;30.10;32.90;;;28.71;34.33;101601.91;12232070;19;20014;-79
2022/07/05 11:05:44;;;;;;;2.33;1.25;;;30.20;33.00;;;28.72;34.40;101584.72;12233905;19;20045;-79
2022/07/05 11:10:02;;;;;;;1.58;0.90;;;30.20;33.10;;;28.61;34.12;101566.38;12233079;19;20078;-77
2022/07/05 11:14:25;;;;;;;1.13;0.93;;;30.20;32.80;;;28.82;34.12;101604.13;12232329;19;20021;-78
2022/07/05 11:18:29;;;;;;;0.73;0.73;;;30.20;33.00;;;28.73;34.02;101574.81;12230819;19;20025;-78
2022/07/05 11:22:31;;;;;;;2.00;0.90;;;30.30;32.80;;;28.77;34.04;101593.09;12231013;19;20644;-78
2022/07/05 11:26:33;;;;;;;1.15;1.00;;;30.30;32.70;;;28.59;33.83;101573.78;12237287;19;20484;-80
2022/07/05 11:30:52;;;;;;;2.30;1.27;;;30.30;32.60;;;28.68;33.79;101595.03;12243189;19;20514;-80
2022/07/05 11:34:56;;;;;;;4.80;0.93;;;30.20;32.50;;;28.59;33.75;101579.97;12242646;19;20022;-81
2022/07/05 11:39:20;;;;;;;1.25;0.93;;;30.20;32.50;;;28.71;33.85;101582.25;12244694;19;20374;-78
2022/07/05 11:43:29;;;;;;;2.45;1.00;;;30.30;32.80;;;28.87;33.37;101601.72;12241150;19;20078;-78
2022/07/05 11:47:33;;;;;;;0.85;0.85;;;30.30;32.80;;;28.89;33.87;101590.78;12247484;19;20413;-80
2022/07/05 11:51:34;;;;;;;0.80;0.80;;;30.30;32.60;;;28.77;33.43;101576.97;12240888;19;20018;-81
2022/07/05 11:55:36;;;;;;;1.25;0.95;;;30.30;32.20;;;28.74;33.17;101573.81;12244517;19;20014;-79
2022/07/05 11:59:38;;;;;;;2.03;1.05;;;30.30;32.30;;;28.46;33.00;101536.75;12243914;19;20018;-79
2022/07/05 12:03:39;;;;;;;2.47;1.30;;;30.30;32.20;;;28.60;33.47;101560.16;12239402;19;20041;-79
2022/07/05 12:07:52;;;;;;;2.03;0.90;;;30.20;32.10;;;28.81;32.71;101572.91;12244044;19;20386;-80
2022/07/05 12:16:16;;;;;;;1.10;0.90;;;30.30;32.10;;;28.87;32.57;101565.94;12241309;19;20049;-80
2022/07/05 12:20:23;;;;;;;1.27;0.90;;;30.40;32.20;;;28.80;32.73;101551.56;12240107;19;20398;-81
2022/07/05 12:24:25;;;;;;;0.95;0.95;;;30.40;32.10;;;28.76;32.86;101558.31;12237605;19;20015;-81
2022/07/05 12:28:27;;;;;;;1.15;1.05;;;30.40;31.80;;;28.66;33.05;101558.59;12241460;19;20014;-80
2022/07/05 12:32:30;;;;;;;1.85;1.30;;;30.30;31.90;;;28.60;32.80;101570.09;12238563;19;20011;-81
2022/07/05 12:36:32;;;;;;;0.82;0.80;;;30.20;31.90;;;28.50;33.04;101564.13;12237640;19;20021;-81
2022/07/05 12:40:38;;;;;;;1.00;0.93;;;30.10;31.90;;;28.51;32.96;101566.63;12239400;19;20010;-81
2022/07/05 12:44:39;;;;;;;0.77;0.77;;;30.10;32.00;;;28.47;32.80;101569.88;12236603;19;20006;-81
2022/07/05 12:48:41;;;;;;;1.77;0.90;;;30.00;31.90;;;28.36;32.62;101557.69;12242606;19;20011;-81
2022/07/05 12:58:01;;;;;;;2.53;0.95;;;30.00;32.00;;;28.41;32.77;101561.50;12236355;19;20078;-81
2022/07/05 13:01:44;;;;;;;1.25;0.70;;;29.90;32.00;;;28.45;32.44;101535.09;12236509;19;20035;-81
2022/07/05 13:06:03;;;;;;;1.60;0.98;;;29.90;31.50;;;28.50;32.45;101543.47;12239583;19;20054;-81
2022/07/05 13:10:28;;;;;;;0.68;0.68;;;29.90;31.50;;;28.50;32.30;101537.25;12236894;19;20021;-80
2022/07/05 13:14:29;;;;;;;0.83;0.80;;;29.90;31.60;;;28.48;32.18;101537.41;12239452;19;20018;-81
2022/07/05 13:18:31;;;;;;;1.80;0.93;;;30.00;31.80;;;28.59;32.22;101536.13;12237306;19;20479;-82
2022/07/05 13:22:33;;;;;;;1.02;0.80;;;30.00;31.60;;;28.66;31.86;101537.91;12235886;19;20014;-81
2022/07/05 13:26:35;;;;;;;1.63;1.00;;;30.00;31.90;;;28.66;32.06;101512.91;12238978;19;20014;-81
2022/07/05 13:30:37;;;;;;;1.15;0.98;;;30.10;31.50;;;28.81;31.82;101539.78;12238174;19;20027;-81
2022/07/05 13:34:38;;;;;;;6.03;0.90;;;30.10;31.60;;;28.72;32.01;101509.47;12241397;19;20019;-81
2022/07/05 13:38:40;;;;;;;1.10;1.00;;;30.40;31.70;;;28.83;31.94;101514.38;12237391;19;20022;-80
2022/07/05 13:42:42;;;;;;;0.82;0.80;;;30.40;31.70;;;29.00;31.80;101522.25;12236004;19;20023;-80
2022/07/05 13:46:44;;;;;;;0.80;0.73;;;30.40;31.20;;;29.11;31.28;101535.25;12236310;19;20015;-80
2022/07/05 13:50:45;;;;;;;0.73;0.70;;;30.40;31.10;;;29.05;31.54;101509.94;12237913;19;20015;-81
2022/07/05 13:54:47;;;;;;;0.68;0.68;;;30.50;31.10;;;29.06;31.34;101511.63;12234370;19;20014;-80
2022/07/05 13:58:49;;;;;;;1.08;0.95;;;30.60;31.10;;;29.01;31.46;101510.47;12239143;19;20018;-80
2022/07/05 14:02:50;;;;;;;2.35;0.88;;;30.60;31.10;;;29.05;31.31;101523.38;12234588;19;20014;-80
2022/07/05 14:06:51;;;;;;;2.65;1.20;;;30.50;31.10;;;28.97;31.35;101525.31;12236024;19;20022;-80
2022/07/05 14:10:57;;;;;;;3.40;0.70;;;30.50;31.00;;;28.84;31.08;101510.69;12233687;19;20022;-80
2022/07/05 14:14:58;;;;;;;;;;;30.40;30.80;;;28.90;31.69;101514.47;12234489;19;20015;-79
2022/07/05 14:19:00;;;;;;;1.23;0.60;;;30.40;31.80;;;28.82;31.25;101509.19;12233353;19;19912;-82
2022/07/05 14:23:01;;;;;;;1.50;0.60;;;30.30;30.60;;;28.77;31.21;101492.78;12229282;19;20021;-82
2022/07/05 14:27:07;;;;;;;1.65;0.90;;;30.40;30.90;;;28.99;31.44;101516.03;12233722;19;20025;-82
2022/07/05 14:31:09;;;;;;;0.60;0.60;;;30.30;30.90;;;29.02;30.64;101499.50;12217863;19;20085;-81
2022/07/05 14:35:19;;;;;;;1.05;0.80;;;30.40;31.10;;;29.15;30.92;101488.13;12230968;19;20039;-82
2022/07/05 14:39:22;;;;;;;1.13;0.90;;;30.50;30.80;;;29.22;30.78;101504.34;12228794;19;20341;-82
2022/07/05 14:43:24;;;;;;;0.70;0.70;;;30.60;30.80;;;29.01;30.75;101462.91;12231808;19;20011;-83
2022/07/05 14:47:26;;;;;;;0.85;0.85;;;30.60;30.70;;;29.18;30.89;101498.50;12229176;19;20011;-83
2022/07/05 14:51:28;;;;;;;2.25;0.90;;;30.60;30.50;;;29.01;31.08;101497.03;12228876;19;20078;-83
2022/07/05 14:55:29;;;;;;;0.90;0.90;;;30.60;30.70;;;28.99;30.83;101499.91;12235390;19;20011;-83
2022/07/05 14:59:31;;;;;;;1.25;0.90;;;30.60;30.50;;;28.85;31.05;101493.50;12229734;19;20021;-82
2022/07/05 15:03:33;;;;;;;7.43;1.00;;;30.50;30.50;;;28.87;30.52;101513.00;12231006;19;20014;-83
2022/07/05 15:07:35;;;;;;;0.70;0.70;;;30.50;30.50;;;28.81;30.62;101491.38;12232068;19;20128;-83
2022/07/05 15:11:36;;;;;;;0.75;0.63;;;30.40;30.60;;;28.78;30.76;101497.13;12231391;19;20015;-83
2022/07/05 15:15:38;;;;;;;1.00;0.90;;;30.30;30.50;;;28.73;30.50;101502.22;12230090;19;20014;-82
2022/07/05 15:19:40;;;;;;;0.77;0.77;;;30.30;30.20;;;28.61;30.56;101502.69;12213931;19;20100;-82
2022/07/05 15:23:41;;;;;;;1.33;0.80;;;30.20;30.40;;;28.52;30.76;101506.50;12228012;19;20018;-82
2022/07/05 15:27:43;;;;;;;1.02;0.90;;;30.10;30.50;;;28.42;30.82;101487.06;12220076;19;20019;-82
2022/07/05 15:31:45;;;;;;;1.77;0.80;;;30.00;30.60;;;28.14;31.45;101446.53;12213969;19;20018;-82
2022/07/05 15:35:47;;;;;;;0.93;0.63;;;30.00;30.90;;;28.37;30.85;101467.97;12220432;19;20249;-83
2022/07/05 15:39:49;;;;;;;1.08;1.00;;;30.00;30.90;;;28.21;30.96;101440.25;12212845;19;20015;-82
2022/07/05 15:43:50;;;;;;;2.60;0.90;;;30.00;30.70;;;28.42;31.20;101474.47;12206550;19;20015;-82
2022/07/05 15:47:52;;;;;;;1.30;1.05;;;29.90;31.00;;;28.40;30.79;101472.97;12211114;19;20142;-82
2022/07/05 15:51:54;;;;;;;0.80;0.80;;;30.00;31.00;;;28.50;30.96;101500.47;12214016;19;20106;-82
2022/07/05 15:56:00;;;;;;;0.90;0.90;;;30.00;31.00;;;28.32;30.89;101487.31;12218359;19;20019;-82
2022/07/05 16:00:04;;;;;;;1.08;1.00;;;29.90;30.80;;;28.19;30.88;101489.81;12211242;19;20109;-82
2022/07/05 16:04:08;;;;;;;2.72;0.80;;;29.80;30.80;;;28.07;30.89;101486.72;12220707;19;20654;-82
2022/07/05 16:08:10;;;;;;;2.88;0.93;;;29.70;30.80;;;27.99;30.65;101473.38;12219471;19;20018;-83
2022/07/05 16:12:12;;;;;;;1.23;0.70;;;29.60;30.90;;;28.02;30.80;101489.13;12217482;19;20046;-81
2022/07/05 16:16:15;;;;;;;1.00;0.73;;;29.60;30.90;;;28.02;30.38;101495.31;12229818;19;20022;-81
2022/07/05 16:20:17;;;;;;;1.00;0.82;;;29.50;30.70;;;27.93;31.18;101483.00;12228659;19;20015;-82
2022/07/05 16:24:20;;;;;;;0.93;0.80;;;29.50;31.00;;;27.95;30.86;101498.91;12219478;19;20026;-82
2022/07/05 16:28:24;;;;;;;0.95;0.73;;;29.50;30.90;;;27.85;31.33;101490.28;12223719;19;20045;-83
2022/07/05 16:32:25;;;;;;;0.77;0.70;;;29.60;31.20;;;27.89;31.19;101503.16;12220841;19;20059;-82
2022/07/05 16:36:27;;;;;;;0.80;0.70;;;29.40;31.00;;;27.87;31.13;101507.03;12228976;19;20014;-82
2022/07/05 16:40:28;;;;;;;1.13;0.80;;;29.40;31.30;;;27.76;30.93;101495.69;12230183;19;20027;-82
2022/07/05 16:44:30;;;;;;;0.70;0.70;;;29.30;30.90;;;27.66;31.30;101487.03;12222422;19;20014;-82
2022/07/05 16:48:32;;;;;;;0.80;0.80;;;29.30;30.90;;;27.73;31.29;101508.59;12225101;19;20025;-82
2022/07/05 16:52:35;;;;;;;0.70;0.70;;;29.20;31.10;;;27.62;31.35;101507.16;12222842;19;20029;-82
2022/07/05 16:56:37;;;;;;;0.95;0.80;;;29.40;31.20;;;27.45;31.11;101490.34;12222353;19;20022;-82